Terminal Aerodrome Forecast
Issued by NWS

Home | Current Version | Previous Version | Text Only | Print | Product List | Glossary On
Versions: 1 2 3 4 5 6 7 8 9 10 11 12 13 14 15 16 17 18 19 20 21 22 23 24 25 26 27 28 29
000
FTUS44 KFWD 182000 AAC
TAFGKY
TAF AMD
KGKY 182058Z 1821/1918 06010KT P6SM VCSH SCT040 BKN070
     FM182230 10006KT P6SM SCT040 BKN140
     FM190200 15006KT P6SM BKN150
     FM191200 12003KT P6SM BKN015
     FM191700 13004KT P6SM FEW250=

USA.gov is the U.S. government's official web portal to all federal, state and local government web resources and services.